Detall de PIREP

Printer-friendly versionPDF version

[2011/02/25 22:28:00]
Flight IATA:CT3106
Pilot Number:026
Company ICAO:CAT
Aircraft Type:DC85/A
PAX:132
Departing Airport: LIEA
Destination Airport: LEVC
Alternate Airport:LEPA
Online: VATSIM
Route:SUPUX UZ924 RIPAL UM603 MHN UN851 MJV UN733 RIKOS
Flight Level:F330
No Slew and time accel
No pause
Crash detect
Detect pilot in Cockpit between each 30 and 45 minutes
22:28 Zero fuel Weight: 179119 Lbs, Fuel Weight: 27802 Lbs
22:28 VATSIM:LIEA 252150Z 02002KT 9999 FEW035 04/03 Q1020
22:28 VATSIM:LEVC 252200Z VRB02KT CAVOK 12/07 Q1022 NOSIG
22:28 VOICE CATALONIAN / INTERHUB ROUTE CT3106
22:36 Parking Brakes off
22:43 Take-off
22:43 Take off Weight: 205804 Lbs
22:43 Wind: 344º @ 000 Knots Heading: 203º
22:43 POS N40º 37´ 27´´ E008º 17´ 10´´
22:43 Flaps:3 at 173 Knots
22:43 Gear Up: 174 Knots
22:43 Flaps:2 at 176 Knots
22:43 Flaps:1 at 166 Knots
22:45 Flaps:0 at 180 Knots
22:58 Wind:005º@010 Knots Heading: 261º Ground Speed: 434 Knots Altitude 29360 ft
23:02 TOC
23:02 Fuel Weight: 20787 Lb
23:13 Wind:270º@020 Knots Heading: 252º Ground Speed: 459 Knots Altitude 33251 ft
23:20 TOD
23:20 Fuel Weight: 16379 Lb
23:28 Wind:225º@022 Knots Heading: 270º Ground Speed: 424 Knots Altitude 22851 ft
23:43 Wind:243º@002 Knots Heading: 257º Ground Speed: 253 Knots Altitude 5610 ft
23:48 Flaps:1 at 195 Knots
23:48 Gear Down: 194 Knots
23:49 Flaps:2 at 158 Knots
23:50 Flaps:3 at 149 Knots
23:50 Flaps:4 at 152 Knots
23:51 Flaps:5 at 151 Knots
23:52 TouchDown:Rate -148 ft/min Speed: 124 Knots
23:52 VATSIM:LEVC 252330Z VRB02KT CAVOK 10/06 Q1021 NOSIG
23:52 Land
23:52 Wind:252º@000 Knots
23:52 Heading: 300º
23:52 Flight Duration: 01:09
23:52 Landing Weight: 191507 Lbs
23:52 POS N39º 29´ 24´´ W000º 29´ 00´´
23:55 Parking brakes on
23:55 Block to Block Duration: 01:19
23:55 Final Fuel: 12094 Lbls
23:55 Spent Fuel: 15707 Lbls
23:55 Flight Length: 419 NM
23:55 TOD Land Length: 171 NM

Exportar CSV

Powered by Drupal - Modified by Danger4k